FTG weather

Front Range Airport
Denver, Colorado, United States

Public forecast

Using degrees Fahrenheit for public forecast. Weather courtesy of forecast.io.

METAR (pilot weather report)

Retrieved 2019/04/25 09:34 UTC (0 seconds ago):

KFTG 250934Z AUTO 01021G26KT 10SM SCT017 OVC025 08/04 A3014 RMK AO2 T00770039

TAF (pilot weather forecast)

Closest forecast is Denver International Airport, 7.5 nm (14.0 km) NW. Retrieved 2019/04/25 06:34 UTC (3 hours ago):

TAF KDEN 250532Z 2506/2612 23010KT P6SM SCT120 FM250610 01018G30KT P6SM VCSH SCT070 BKN110 FM250800 01014G24KT P6SM SCT030 BKN090 FM250900 03011KT P6SM VCSH SCT007 OVC015 FM251400 34010KT P6SM SCT015 BKN045 FM251800 03008KT P6SM SCT050 FM260000 08007KT P6SM FEW050 SCT220 FM260400 16012KT P6SM SCT220 FM260800 20011KT P6SM FEW250